Hlavní strana
METAR-TAF:

METAR-TAF

Letiště :

Vadsø, Norsko

zeměpisná šířka: 70-04N, zeměpisná délka: 029-51E, výška: 3 m

Aktuální stav počasí

Zpráva byla vytvořena před 13 hodinami a 6 minutami, v 13:20 UTC
Jižní vítr 14 kt
Teplota 5°C
Vlhkost vzduchu 75%
Tlak 1001 hPa
Viditelnost 10 km a více
Skoro jasno ve výšce 1200 ft
Polojasno ve výšce 2000 ft
Oblačno až skoro zataženo ve výšce 3700 ft
přeháňky v blízkosti

METAR: ENVD 081320Z 17014KT 9999 VCSH FEW012 SCT020 BKN037 05/01 Q1001

Čas: 04:26 (02:26 UTC)


TAF: chybějící

Stav a předpovědi počasí z více než 4 000 letišť (zprávy METAR a TAF).

Červené a žluté tečky na mapě představují dostupné meteorologické stanice.

Když kurzor umístíte na tečku, zobrazí se název stanice.

Pak kliknutím zobrazíte stav a předpověď počasí.

Chcete-li změnit mapu, kliknutím na zelené tlačítko se znaménkem +mapu přiblížíte, kliknutím na zelené tlačítko se znaménkem – mapu oddálíte a kliknutím na zelené šipky přejdete na sousední mapy.


METAR-TAF: